Bretzville, Indiana
Current Conditions -  °F | °C
As of 10:55 AM on Saturday 25 Oct 2014 (Local Time) from KHNB Reporting Station
Broken Clouds Broken Clouds  
Wind Chill: 66°   Ceiling: 4800
Heat Index: 66°   Visibility: 10mi
Dew Point: 57°   Wind: 7mph
Humidity: 73%   Direction: 320°NW
Pressure: 30.03"   Gusts: NA
Location:  38.3038°N, 86.9615°W
Report Text: KHNB 251555Z AUTO 32006KT 10SM SCT041 BKN048 19/14 A3003 RMK AO1
Loading
Personal Weather Stations






























Interactive Weather Map
Tropical Storm Tracking
New forecast layout! Learn more

10-Day Weather Forecast

Advertisements
Track Severe Weather on mobile